aviador You're here:

GMML Decoded Metar

LAAYOUNE/HASSAN in OCCIDENTAL SAHARA
Report Time2018-01-20 05:00:00
UTC Time2018-01-20 05:09:06
Flight Rules vfr VFR
Wind030° at 16 kt
W.Decomp.*RWY 04: 15.9 kt HW 1.7 kt LCW
RWY 02: 15.5 kt HW 3.9 kt RCW
W.Rank030° ranks 1
Current wind is above 030° avg. (12.8)
Visibility8000 m
Phenomena:N/A
Clouds:Scattered 030 Hf
Expected CloudBase > 1,200 ft AGL from Temp-Dew spread
CeilingNone
Temp15°C (ISA 0)
Dew Point12°C (82% RH)
AAT9.8°C
QNH1022 hPa
Density Alt-92 ft
Elevation20 ft
Report Wrong Elevation
Raw Report
METAR GMML 200500Z 03016KT 8000 SCT030 15/12 Q1022 NOSIG=

Extra information for GMML:More info

Metar Taf Metar & Taf Last 4 Metars F.Rules Stats Wind Profile Meteogram Temp Stats Airport Information Weather charts Add Link Nearby VenuesMetar ALERT Operation Metar Decoded Social comments